Time;durP1;ratioP1;P1;durP2;ratioP2;P2;SDS_P1;SDS_P2;PMS_P1;PMS_P2;Temp;Humidity;BMP_temperature;BMP_pressure;BME280_temperature;BME280_humidity;BME280_pressure;Samples;Min_cycle;Max_cycle;Signal;HPM_P1;HPM_P2
2022/02/09 00:02:05;;;;;;;;;;;;;;;7.85;100.00;102102.91;4977693;28;20101;-76
2022/02/09 00:04:40;;;;;;;29.73;20.98;;;;;;;7.93;100.00;102104.13;4985607;28;19949;-76
2022/02/09 00:07:13;;;;;;;27.95;20.67;;;;;;;7.96;100.00;102096.06;4972060;28;20042;-76
2022/02/09 00:09:44;;;;;;;28.35;21.48;;;;;;;7.95;100.00;102089.19;4995839;28;20034;-75
2022/02/09 00:12:17;;;;;;;27.30;21.98;;;;;;;7.96;100.00;102100.47;4986276;28;20034;-76
2022/02/09 00:14:54;;;;;;;29.90;22.92;;;;;;;7.93;100.00;102096.28;4970826;28;20031;-76
2022/02/09 00:17:38;;;;;;;29.30;23.63;;;;;;;8.00;100.00;102094.09;4978444;28;20133;-75
2022/02/09 00:23:12;;;;;;;36.08;25.50;;;;;;;7.96;100.00;102114.34;4991364;28;20030;-75
2022/02/09 00:38:40;;;;;;;40.92;29.30;;;;;;;7.84;100.00;102094.25;4982232;28;20034;-74
2022/02/09 01:38:22;;;;;;;46.15;32.53;;;;;;;7.74;100.00;102103.56;4987139;28;20121;-75
2022/02/09 01:57:04;;;;;;;49.65;34.05;;;;;;;7.60;100.00;102079.13;4984295;28;20038;-75
2022/02/09 01:59:30;;;;;;;45.72;33.38;;;;;;;7.66;100.00;102079.69;4981982;28;20532;-75
2022/02/09 02:01:56;;;;;;;47.42;32.33;;;;;;;7.66;100.00;102083.13;4979014;28;20134;-76
2022/02/09 02:04:25;;;;;;;46.20;32.35;;;;;;;7.66;100.00;102079.69;4983310;28;20034;-77
2022/02/09 02:06:55;;;;;;;42.35;30.35;;;;;;;7.67;100.00;102082.22;4963340;28;20030;-74
2022/02/09 02:09:23;;;;;;;45.17;29.17;;;;;;;7.66;100.00;102077.91;4984608;28;20034;-75
2022/02/09 02:12:01;;;;;;;40.45;27.75;;;;;;;7.69;100.00;102064.69;4985197;28;20038;-76
2022/02/09 02:14:37;;;;;;;36.72;27.05;;;;;;;7.67;100.00;102068.34;4982469;28;20039;-75
2022/02/09 02:17:15;;;;;;;35.80;25.95;;;;;;;7.63;100.00;102062.47;4983060;28;20046;-76
2022/02/09 02:19:46;;;;;;;37.42;25.88;;;;;;;7.61;100.00;102069.56;4970716;28;20030;-76
2022/02/09 02:22:37;;;;;;;32.03;23.88;;;;;;;7.62;100.00;102063.38;4947334;28;20498;-76
2022/02/09 02:25:47;;;;;;;37.22;26.13;;;;;;;7.66;100.00;102070.09;4982927;28;20184;-75
2022/02/09 02:38:46;;;;;;;40.97;27.58;;;;;;;7.61;100.00;102066.94;4989510;28;20064;-76
2022/02/09 02:41:54;;;;;;;39.40;27.73;;;;;;;7.63;100.00;102072.91;4977978;28;20035;-75
2022/02/09 02:44:37;;;;;;;39.70;27.90;;;;;;;7.57;100.00;102068.03;4986345;28;20524;-74
2022/02/09 03:13:15;;;;;;;47.67;32.13;;;;;;;7.45;100.00;102045.31;4989099;28;20037;-75
2022/02/09 03:15:49;;;;;;;47.28;31.73;;;;;;;7.48;100.00;102037.28;4985177;28;20031;-75
2022/02/09 03:21:02;;;;;;;43.08;30.63;;;;;;;7.46;100.00;102041.75;4985913;28;20093;-75
2022/02/09 03:23:49;;;;;;;41.10;29.17;;;;;;;7.41;100.00;102040.25;4981325;28;20037;-74
2022/02/09 03:45:16;;;;;;;39.55;26.52;;;;;;;7.44;100.00;102022.72;5002536;28;20112;-75
2022/02/09 03:47:49;;;;;;;43.05;26.38;;;;;;;7.39;100.00;102015.19;4980341;28;20038;-75
2022/02/09 03:53:09;;;;;;;48.40;28.27;;;;;;;7.43;100.00;102023.69;4967086;28;20066;-76
2022/02/09 03:58:19;;;;;;;38.65;27.17;;;;;;;7.38;100.00;102013.50;4978860;28;20033;-75
2022/02/09 04:00:46;;;;;;;49.50;26.70;;;;;;;7.46;100.00;102026.09;5003927;28;20038;-76
2022/02/09 04:03:19;;;;;;;42.65;26.83;;;;;;;7.46;100.00;102026.94;4979801;28;20090;-76
2022/02/09 04:05:47;;;;;;;45.53;27.10;;;;;;;7.44;100.00;102034.03;4976863;28;20043;-75
2022/02/09 04:08:16;;;;;;;41.10;25.75;;;;;;;7.45;100.00;102032.25;4990765;28;20516;-76
2022/02/09 04:11:02;;;;;;;43.25;26.85;;;;;;;7.37;100.00;102023.13;4980284;28;20419;-75
2022/02/09 04:13:41;;;;;;;45.42;27.00;;;;;;;7.44;100.00;102031.44;5005057;28;20089;-75
2022/02/09 04:16:19;;;;;;;45.55;28.38;;;;;;;7.41;100.00;102024.59;5009188;28;20041;-76
2022/02/09 04:46:16;;;;;;;45.33;27.27;;;;;;;7.31;100.00;101996.53;4987067;28;20039;-74
2022/02/09 04:51:33;;;;;;;45.05;26.67;;;;;;;7.34;100.00;101999.81;4973353;28;20125;-75
2022/02/09 04:54:22;;;;;;;47.87;26.17;;;;;;;7.42;100.00;101988.88;4974066;28;20035;-75
2022/02/09 05:18:18;;;;;;;39.15;23.48;;;;;;;7.43;100.00;101974.09;4989065;28;20030;-75
2022/02/09 05:26:01;;;;;;;41.20;23.65;;;;;;;7.35;100.00;101979.78;4974709;28;20030;-74
2022/02/09 05:28:27;;;;;;;46.83;24.92;;;;;;;7.25;100.00;101960.38;4977351;28;20378;-74
2022/02/09 05:30:53;;;;;;;40.70;23.48;;;;;;;7.32;100.00;101974.75;4995660;28;20052;-75
2022/02/09 05:33:19;;;;;;;42.00;23.38;;;;;;;7.44;100.00;101978.34;4993563;28;20081;-75
2022/02/09 05:35:45;;;;;;;43.88;23.02;;;;;;;7.40;100.00;101972.47;4982581;28;20113;-76
2022/02/09 05:38:12;;;;;;;40.38;23.35;;;;;;;7.44;100.00;101967.91;5007039;28;20065;-75
2022/02/09 05:40:38;;;;;;;40.00;22.73;;;;;;;7.38;100.00;101967.38;4977049;28;20038;-75
2022/02/09 05:43:04;;;;;;;39.53;23.88;;;;;;;7.33;100.00;101974.66;4974072;28;20038;-75
2022/02/09 05:45:45;;;;;;;41.17;23.45;;;;;;;7.33;100.00;101969.44;4976134;28;20034;-75
2022/02/09 05:56:35;;;;;;;39.22;23.33;;;;;;;7.24;100.00;101975.22;4978023;28;20109;-75
2022/02/09 06:01:46;;;;;;;45.78;23.55;;;;;;;7.26;100.00;101985.56;4986476;28;20050;-75
2022/02/09 06:04:12;;;;;;;47.45;24.65;;;;;;;7.19;100.00;101988.53;4975561;28;20026;-75
2022/02/09 06:06:38;;;;;;;38.65;23.88;;;;;;;7.17;100.00;101985.19;4955141;28;20051;-76
2022/02/09 06:09:03;;;;;;;44.10;23.48;;;;;;;7.17;100.00;101979.97;4970640;28;20034;-74
2022/02/09 06:11:37;;;;;;;41.53;23.13;;;;;;;7.15;100.00;101981.84;4984109;28;20057;-75
2022/02/09 06:14:33;;;;;;;42.05;24.40;;;;;;;7.13;100.00;101978.47;4988154;28;20045;-74
2022/02/09 06:19:47;;;;;;;43.40;24.10;;;;;;;6.99;100.00;101965.44;4981146;28;20046;-76
2022/02/09 06:22:13;;;;;;;39.88;23.45;;;;;;;7.02;100.00;101979.13;4961922;28;20492;-75
2022/02/09 06:24:41;;;;;;;62.10;24.50;;;;;;;6.99;100.00;101970.66;5000942;28;20065;-75
2022/02/09 06:27:08;;;;;;;44.08;24.70;;;;;;;6.96;100.00;101976.91;4991932;28;20100;-75
2022/02/09 06:29:33;;;;;;;49.58;25.48;;;;;;;6.99;100.00;101973.28;4972876;28;20558;-75
2022/02/09 06:32:07;;;;;;;45.10;24.35;;;;;;;6.99;100.00;101976.72;4987610;28;20043;-76
2022/02/09 06:34:33;;;;;;;43.63;23.77;;;;;;;6.92;100.00;101966.75;4995447;28;20035;-76
2022/02/09 06:37:10;;;;;;;45.40;24.80;;;;;;;6.97;100.00;101967.31;4994308;28;20053;-76
2022/02/09 06:39:35;;;;;;;43.65;23.83;;;;;;;6.95;100.00;101975.22;4954828;28;20061;-75
2022/02/09 06:42:01;;;;;;;44.35;25.05;;;;;;;6.99;100.00;101971.50;4990932;28;20097;-77
2022/02/09 06:44:29;;;;;;;50.17;23.75;;;;;;;6.96;100.00;101966.47;4983139;28;20066;-76
2022/02/09 06:46:55;;;;;;;44.35;23.98;;;;;;;7.01;100.00;101972.25;4987298;28;20046;-75
2022/02/09 06:49:21;;;;;;;46.65;24.02;;;;;;;6.96;100.00;101963.84;4982635;28;21056;-75
2022/02/09 06:51:47;;;;;;;44.45;23.73;;;;;;;6.99;100.00;101974.09;4963297;28;20034;-77
2022/02/09 06:54:17;;;;;;;37.10;21.63;;;;;;;7.05;100.00;101969.47;4986831;28;20035;-75
2022/02/09 06:59:16;;;;;;;44.20;23.38;;;;;;;7.04;100.00;101958.16;4985612;28;20038;-76
2022/02/09 07:01:42;;;;;;;37.78;22.30;;;;;;;7.02;100.00;101963.47;4987462;28;20043;-76
2022/02/09 07:04:07;;;;;;;37.47;21.45;;;;;;;7.04;100.00;101963.38;4971820;28;20030;-76
2022/02/09 07:06:33;;;;;;;40.63;20.90;;;;;;;7.10;100.00;101962.16;4964224;28;20053;-76
2022/02/09 07:08:59;;;;;;;38.95;22.55;;;;;;;7.06;100.00;101965.91;4974204;28;20606;-75
2022/02/09 07:11:25;;;;;;;40.50;22.55;;;;;;;7.09;100.00;101960.50;4980789;28;20042;-75
2022/02/09 07:13:51;;;;;;;36.67;21.20;;;;;;;7.08;100.00;101951.00;4978599;28;20034;-73
2022/02/09 07:16:18;;;;;;;33.42;21.35;;;;;;;7.08;100.00;101959.66;4981943;28;20035;-76
2022/02/09 07:18:45;;;;;;;38.75;21.88;;;;;;;7.00;100.00;101956.69;4987826;28;20493;-75
2022/02/09 07:21:16;;;;;;;39.60;22.58;;;;;;;7.04;100.00;101958.16;4980602;28;20035;-76
2022/02/09 07:23:49;;;;;;;36.97;22.50;;;;;;;7.09;100.00;101963.94;4983140;28;20125;-75
2022/02/09 07:26:20;;;;;;;38.55;22.60;;;;;;;7.10;100.00;101965.63;4974922;28;20046;-76
2022/02/09 07:28:47;;;;;;;37.38;21.70;;;;;;;7.13;100.00;101955.00;4974176;28;20401;-76
2022/02/09 07:31:13;;;;;;;34.92;21.20;;;;;;;7.18;100.00;101952.94;4971965;28;20050;-75
2022/02/09 07:33:42;;;;;;;36.67;21.52;;;;;;;7.23;100.00;101950.03;4984612;28;20031;-76
2022/02/09 07:36:09;;;;;;;37.88;20.50;;;;;;;7.24;100.00;101945.69;4970509;28;21375;-76
2022/02/09 07:38:35;;;;;;;35.28;20.75;;;;;;;7.31;100.00;101953.03;4990184;28;20161;-76
2022/02/09 07:41:01;;;;;;;36.35;20.75;;;;;;;7.32;100.00;101962.53;4983493;28;20181;-75
2022/02/09 07:56:16;;;;;;;25.13;17.38;;;;;;;7.43;100.00;101956.63;4992272;28;20046;-76
2022/02/09 07:58:42;;;;;;;27.10;17.55;;;;;;;7.42;100.00;101949.72;4978413;28;20815;-76
2022/02/09 08:01:08;;;;;;;27.13;17.30;;;;;;;7.45;100.00;101948.72;4989749;28;20145;-77
2022/02/09 08:03:35;;;;;;;23.90;17.85;;;;;;;7.40;100.00;101947.25;4973233;28;20026;-77
2022/02/09 08:06:03;;;;;;;28.02;16.60;;;;;;;7.38;100.00;101946.50;4978154;28;20129;-75
2022/02/09 08:08:33;;;;;;;25.63;16.30;;;;;;;7.42;100.00;101939.28;4960490;28;20134;-75
2022/02/09 08:11:13;;;;;;;25.77;16.55;;;;;;;7.42;100.00;101939.28;4972943;28;20100;-77
2022/02/09 08:27:37;;;;;;;23.38;13.90;;;;;;;7.52;100.00;101937.78;4990298;28;20030;-77
2022/02/09 08:30:21;;;;;;;20.80;12.95;;;;;;;7.52;100.00;101939.56;4997544;28;20050;-76
2022/02/09 08:32:54;;;;;;;18.90;13.10;;;;;;;7.53;100.00;101939.44;4974126;28;20034;-75
2022/02/09 08:35:20;;;;;;;18.67;13.13;;;;;;;7.55;100.00;101936.75;4990164;28;20109;-76
2022/02/09 08:37:45;;;;;;;18.98;12.27;;;;;;;7.58;100.00;101931.34;4991069;28;20085;-76
2022/02/09 08:40:14;;;;;;;15.75;12.10;;;;;;;7.59;100.00;101933.00;4991775;28;20121;-75
2022/02/09 08:42:40;;;;;;;18.02;11.82;;;;;;;7.58;100.00;101942.63;4989058;28;20035;-76
2022/02/09 08:45:09;;;;;;;17.92;11.60;;;;;;;7.59;100.00;101939.06;4987110;28;20831;-76
2022/02/09 08:47:36;;;;;;;19.10;11.60;;;;;;;7.63;100.00;101941.47;4971039;28;20067;-75
2022/02/09 08:50:03;;;;;;;16.65;11.25;;;;;;;7.65;100.00;101926.53;5001691;28;20089;-76
2022/02/09 08:52:29;;;;;;;14.27;10.25;;;;;;;7.60;100.00;101930.28;4984293;28;20492;-76
2022/02/09 08:54:55;;;;;;;14.77;10.75;;;;;;;7.66;100.00;101926.44;4983149;28;20030;-75
2022/02/09 08:57:21;;;;;;;16.30;10.52;;;;;;;7.72;100.00;101927.81;4990244;28;20030;-75
2022/02/09 08:59:49;;;;;;;17.83;10.80;;;;;;;7.83;100.00;101934.97;4973513;28;20069;-75
2022/02/09 09:02:18;;;;;;;16.73;10.15;;;;;;;7.87;100.00;101932.06;4983830;28;20056;-76
2022/02/09 09:04:52;;;;;;;21.33;11.13;;;;;;;7.90;100.00;101936.25;4992172;28;20084;-76
2022/02/09 09:07:31;;;;;;;20.90;11.10;;;;;;;7.89;100.00;101937.19;4985051;28;20038;-75
2022/02/09 09:14:58;;;;;;;13.70;10.43;;;;;;;7.98;100.00;101926.13;4971309;28;20068;-75
2022/02/09 10:00:01;;;;;;;16.50;11.10;;;;;;;8.46;100.00;101912.56;4971321;28;20031;-76
2022/02/09 10:01:52;;;;;;;15.77;11.13;;;;;;;8.44;100.00;101923.13;4973030;28;20148;-74
2022/02/09 10:04:56;;;;;;;14.98;10.30;;;;;;;8.47;100.00;101930.75;4980319;28;20569;-75
2022/02/09 10:33:14;;;;;;;12.88;10.45;;;;;;;8.63;100.00;101933.16;4986642;28;20061;-74
2022/02/09 10:35:59;;;;;;;12.95;10.32;;;;;;;8.64;100.00;101934.00;4982069;28;20034;-75
2022/02/09 10:38:30;;;;;;;12.68;10.40;;;;;;;8.60;100.00;101935.97;4987392;28;20196;-74
2022/02/09 10:41:17;;;;;;;15.32;10.48;;;;;;;8.52;100.00;101926.03;4970121;28;20409;-75
2022/02/09 10:43:45;;;;;;;15.23;10.40;;;;;;;8.53;100.00;101925.13;4990202;28;20503;-76
2022/02/09 10:46:12;;;;;;;17.98;10.25;;;;;;;8.55;100.00;101923.25;4990627;28;20027;-76
2022/02/09 10:49:01;;;;;;;13.15;9.63;;;;;;;8.77;100.00;101925.19;4993493;28;20088;-76
2022/02/09 10:54:14;;;;;;;14.48;9.07;;;;;;;9.09;100.00;101916.88;4972932;28;20042;-75
2022/02/09 10:57:00;;;;;;;11.02;8.93;;;;;;;9.02;100.00;101905.16;4963306;28;20039;-76
2022/02/09 10:59:31;;;;;;;13.43;8.18;;;;;;;8.95;100.00;101923.09;4963726;28;20042;-75
2022/02/09 11:02:01;;;;;;;11.85;8.65;;;;;;;8.90;100.00;101924.38;4991598;28;20034;-76
2022/02/09 11:04:28;;;;;;;10.90;8.25;;;;;;;8.81;100.00;101925.00;4972345;28;20041;-76
2022/02/09 11:06:54;;;;;;;11.15;7.85;;;;;;;8.79;100.00;101916.41;4976837;28;20046;-76
2022/02/09 11:09:22;;;;;;;11.18;7.93;;;;;;;8.74;100.00;101920.19;4983470;28;20113;-76
2022/02/09 11:11:49;;;;;;;14.15;8.00;;;;;;;8.62;100.00;101926.25;4986175;28;20038;-76
2022/02/09 11:14:22;;;;;;;12.60;7.57;;;;;;;8.68;100.00;101917.16;4978145;28;20049;-75
2022/02/09 11:16:51;;;;;;;11.20;7.75;;;;;;;8.56;100.00;101911.81;4982464;28;20050;-76
2022/02/09 11:19:19;;;;;;;10.13;7.18;;;;;;;8.61;100.00;101923.75;4989495;28;20034;-76
2022/02/09 11:21:50;;;;;;;8.98;7.18;;;;;;;8.56;100.00;101918.84;4980424;28;20042;-75
2022/02/09 11:24:22;;;;;;;12.98;7.18;;;;;;;8.53;100.00;101924.25;4994711;28;20030;-75
2022/02/09 11:27:04;;;;;;;8.65;6.25;;;;;;;8.47;100.00;101911.59;4989676;28;20035;-76
2022/02/09 11:32:14;;;;;;;9.73;6.13;;;;;;;8.39;100.00;101915.53;4970367;28;20046;-74
2022/02/09 11:35:39;;;;;;;8.48;5.88;;;;;;;8.43;100.00;101916.22;4974937;28;20027;-75
2022/02/09 11:37:41;;;;;;;10.88;6.43;;;;;;;8.49;100.00;101914.97;4974970;28;20048;-75
2022/02/09 11:43:48;;;;;;;9.77;5.57;;;;;;;8.30;100.00;101913.53;4957116;28;20077;-74
2022/02/09 11:46:53;;;;;;;8.63;5.53;;;;;;;8.43;100.00;101913.59;4965147;28;20098;-74
2022/02/09 12:09:52;;;;;;;8.85;4.65;;;;;;;8.47;100.00;101901.97;4974594;28;20034;-75
2022/02/09 12:12:23;;;;;;;5.93;4.95;;;;;;;8.49;100.00;101907.94;4975685;28;20049;-74
2022/02/09 12:14:55;;;;;;;14.10;5.63;;;;;;;8.52;100.00;101912.16;4963164;28;20046;-74
2022/02/09 12:17:47;;;;;;;9.90;4.88;;;;;;;8.51;100.00;101907.84;4960318;28;20046;-74
2022/02/09 12:20:25;;;;;;;7.63;5.30;;;;;;;8.48;100.00;101906.28;4977559;28;20030;-74
2022/02/09 12:25:44;;;;;;;9.05;5.60;;;;;;;8.49;100.00;101897.47;4984644;28;20036;-74
2022/02/09 12:28:21;;;;;;;7.78;5.50;;;;;;;8.51;100.00;101898.25;4984367;28;20105;-75
2022/02/09 12:30:47;;;;;;;8.15;5.32;;;;;;;8.52;100.00;101886.00;4969485;28;20038;-75
2022/02/09 12:33:21;;;;;;;6.80;4.90;;;;;;;8.52;100.00;101888.59;4979074;28;20125;-74
2022/02/09 12:35:46;;;;;;;10.85;5.15;;;;;;;8.48;100.00;101898.44;4975082;28;20038;-74
2022/02/09 12:38:12;;;;;;;8.40;5.30;;;;;;;8.53;100.00;101892.88;4990146;28;20042;-74
2022/02/09 12:40:38;;;;;;;9.43;5.38;;;;;;;8.51;100.00;101887.78;4974200;28;20792;-74
2022/02/09 12:43:06;;;;;;;7.00;4.85;;;;;;;8.62;100.00;101889.63;4973737;28;20378;-74
2022/02/09 12:45:35;;;;;;;13.23;5.25;;;;;;;8.58;100.00;101883.78;4990585;28;20038;-75
2022/02/09 12:48:01;;;;;;;9.55;5.10;;;;;;;8.59;100.00;101879.41;4979930;28;20046;-75
2022/02/09 12:50:30;;;;;;;6.88;4.72;;;;;;;8.57;100.00;101889.97;4958361;28;20057;-74
2022/02/09 12:52:57;;;;;;;9.32;4.80;;;;;;;8.63;100.00;101896.56;4989068;28;20394;-75
2022/02/09 12:55:27;;;;;;;5.43;4.43;;;;;;;8.57;100.00;101891.75;4971268;28;20158;-75
2022/02/09 12:57:57;;;;;;;7.63;4.53;;;;;;;8.54;100.00;101897.19;4981320;28;20066;-75
2022/02/09 13:00:33;;;;;;;4.55;4.03;;;;;;;8.53;100.00;101896.34;4988466;28;20045;-75
2022/02/09 13:03:22;;;;;;;5.38;3.85;;;;;;;8.61;100.00;101901.06;4973942;28;20496;-75
2022/02/09 13:05:53;;;;;;;4.82;3.75;;;;;;;8.65;100.00;101889.44;4970313;28;20043;-73
2022/02/09 13:08:21;;;;;;;4.82;3.80;;;;;;;8.65;100.00;101886.81;4982071;28;20055;-75
2022/02/09 13:10:47;;;;;;;4.18;3.63;;;;;;;8.65;100.00;101891.22;4993190;28;20049;-74
2022/02/09 13:15:47;;;;;;;5.35;4.28;;;;;;;8.61;100.00;101887.97;4970982;28;20078;-74
2022/02/09 14:03:17;;;;;;;7.95;3.90;;;;;;;8.34;100.00;101888.91;4989480;28;20046;-75
2022/02/09 14:13:44;;;;;;;6.03;3.70;;;;;;;8.27;100.00;101900.69;4988372;28;20038;-75
2022/02/09 14:56:48;;;;;;;6.80;5.63;;;;;;;8.15;100.00;101891.88;4992490;28;20080;-75
2022/02/09 14:59:21;;;;;;;8.60;5.22;;;;;;;8.11;100.00;101894.81;4989332;28;20073;-75
2022/02/09 15:01:56;;;;;;;6.88;5.95;;;;;;;8.03;100.00;101895.31;4987674;28;20444;-74
2022/02/09 15:04:33;;;;;;;6.97;5.90;;;;;;;8.02;100.00;101898.88;4987796;28;20037;-75
2022/02/09 15:09:56;;;;;;;9.13;6.35;;;;;;;7.99;100.00;101897.31;4986760;28;20089;-75
2022/02/09 15:12:47;;;;;;;11.40;6.20;;;;;;;7.98;100.00;101897.41;4955252;28;20121;-75
2022/02/09 15:15:38;;;;;;;9.90;7.05;;;;;;;7.94;100.00;101894.16;4985113;28;20035;-75
2022/02/09 15:23:34;;;;;;;9.98;7.68;;;;;;;7.95;100.00;101900.22;4983932;28;20030;-75
2022/02/09 15:26:02;;;;;;;9.50;7.68;;;;;;;7.93;100.00;101902.94;4992428;28;20046;-75
2022/02/09 15:28:27;;;;;;;9.88;7.53;;;;;;;7.84;100.00;101902.72;4977133;28;20034;-76
2022/02/09 15:31:05;;;;;;;9.23;7.50;;;;;;;7.86;100.00;101904.28;4986731;28;20035;-75
2022/02/09 15:33:43;;;;;;;10.68;7.72;;;;;;;7.85;100.00;101902.59;4983567;28;20578;-76
2022/02/09 15:36:12;;;;;;;9.63;7.50;;;;;;;7.88;100.00;101909.41;4992798;28;20038;-75
2022/02/09 15:38:45;;;;;;;8.82;7.93;;;;;;;7.82;100.00;101904.56;4969407;28;20030;-75
2022/02/09 15:41:45;;;;;;;8.50;7.25;;;;;;;7.82;100.00;101907.16;4976735;28;20037;-75
2022/02/09 15:57:55;;;;;;;9.00;7.38;;;;;;;7.74;100.00;101916.38;4990451;28;20495;-75
2022/02/09 16:05:45;;;;;;;10.43;7.65;;;;;;;7.75;100.00;101918.03;4968593;28;20118;-76
2022/02/09 16:11:12;;;;;;;10.75;8.32;;;;;;;7.68;100.00;101910.69;4974942;28;20596;-75
2022/02/09 16:19:39;;;;;;;9.50;7.82;;;;;;;7.69;100.00;101931.50;4990481;28;20073;-75
2022/02/09 16:22:07;;;;;;;11.07;8.07;;;;;;;7.66;100.00;101929.06;4978748;28;20117;-75
2022/02/09 16:25:08;;;;;;;10.20;7.97;;;;;;;7.62;100.00;101926.75;4996390;28;20053;-76
2022/02/09 16:46:23;;;;;;;6.63;3.72;;;;;;;7.14;100.00;101956.69;4989026;28;20034;-76
2022/02/09 16:48:59;;;;;;;9.05;3.95;;;;;;;7.27;100.00;101954.16;4973774;28;20030;-75
2022/02/09 16:51:27;;;;;;;10.00;3.65;;;;;;;7.19;100.00;101948.56;4965986;28;20057;-75
2022/02/09 16:56:49;;;;;;;11.90;4.57;;;;;;;7.13;100.00;101955.00;4982246;28;20030;-75
2022/02/09 17:18:48;;;;;;;17.20;4.65;;;;;;;6.94;100.00;101976.16;4979223;28;20069;-75
2022/02/09 17:21:10;;;;;;;13.38;4.68;;;;;;;6.91;100.00;101984.19;4984490;28;20521;-74
2022/02/09 17:23:36;;;;;;;22.67;5.13;;;;;;;6.80;100.00;102004.84;4978678;28;20534;-75
2022/02/09 17:26:02;;;;;;;17.40;4.93;;;;;;;6.77;100.00;101990.19;4986502;28;20039;-74
2022/02/09 17:28:28;;;;;;;18.50;5.00;;;;;;;6.79;100.00;101983.13;4952486;28;20905;-76
2022/02/09 17:36:11;;;;;;;21.92;5.78;;;;;;;6.67;100.00;101975.19;4982422;28;20089;-74
2022/02/09 17:38:45;;;;;;;15.15;5.00;;;;;;;6.65;100.00;101985.72;4979657;28;20089;-75
2022/02/09 17:57:41;;;;;;;20.13;5.32;;;;;;;6.66;100.00;101984.78;4985224;28;20124;-75
2022/02/09 18:00:14;;;;;;;19.88;4.93;;;;;;;6.64;100.00;101989.25;4975933;28;20042;-75
2022/02/09 18:02:41;;;;;;;27.45;5.25;;;;;;;6.60;100.00;101998.19;4981744;28;20060;-74
2022/02/09 18:05:14;;;;;;;23.35;4.85;;;;;;;6.65;100.00;101995.28;4983562;28;20524;-75
2022/02/09 18:07:42;;;;;;;20.05;4.05;;;;;;;6.58;100.00;101994.84;4970154;28;20058;-74
2022/02/09 18:10:22;;;;;;;22.52;4.35;;;;;;;6.45;100.00;102001.69;4982379;28;20052;-76
2022/02/09 18:29:06;;;;;;;22.23;3.72;;;;;;;6.35;100.00;102009.22;4987097;28;20042;-75
2022/02/09 18:31:39;;;;;;;20.60;3.95;;;;;;;6.26;100.00;102009.72;4984120;28;20038;-75
2022/02/09 18:34:18;;;;;;;22.40;4.32;;;;;;;6.21;100.00;102004.75;4988229;28;20066;-74
2022/02/09 18:42:49;;;;;;;24.85;5.28;;;;;;;6.31;100.00;101997.25;4954530;28;20122;-75
2022/02/09 18:45:20;;;;;;;25.90;4.97;;;;;;;6.42;100.00;102002.69;4986380;28;20030;-74
2022/02/09 18:47:58;;;;;;;23.30;5.05;;;;;;;6.32;100.00;102004.16;4982336;28;20515;-75
2022/02/09 19:04:00;;;;;;;25.25;6.43;;;;;;;6.30;100.00;102000.81;4972390;28;20039;-76
2022/02/09 19:06:39;;;;;;;;;;;;;;;6.33;100.00;102006.69;4972336;28;20034;-75
2022/02/09 19:14:30;;;;;;;24.88;8.23;;;;;;;6.45;100.00;102001.69;4986570;28;20295;-75
2022/02/09 19:48:42;;;;;;;27.30;8.80;;;;;;;6.32;100.00;102010.19;4986871;28;20451;-76
2022/02/09 19:51:33;;;;;;;29.42;10.25;;;;;;;6.35;100.00;102012.66;4983680;28;20084;-76
2022/02/09 19:56:35;;;;;;;28.20;9.60;;;;;;;6.30;100.00;102000.81;4969358;28;20125;-74
2022/02/09 19:59:06;;;;;;;25.08;9.77;;;;;;;6.29;100.00;102001.72;4982908;28;20093;-75
2022/02/09 20:01:38;;;;;;;26.67;9.55;;;;;;;6.43;100.00;102005.22;4983345;28;20673;-74
2022/02/09 20:04:06;;;;;;;29.15;9.68;;;;;;;6.40;100.00;102001.94;4989072;28;20109;-75
2022/02/09 20:06:32;;;;;;;34.55;9.55;;;;;;;6.37;100.00;102009.94;4962352;28;20026;-74
2022/02/09 20:08:58;;;;;;;23.67;9.13;;;;;;;6.43;100.00;102002.59;4950204;28;22012;-74
2022/02/09 20:11:23;;;;;;;37.13;9.88;;;;;;;6.36;100.00;102005.66;4969100;28;20130;-74
2022/02/09 20:13:52;;;;;;;25.40;9.23;;;;;;;6.28;100.00;102007.88;4965129;28;20037;-75
2022/02/09 20:16:20;;;;;;;28.42;10.25;;;;;;;6.42;100.00;102018.31;4990498;28;20030;-75
2022/02/09 20:18:46;;;;;;;30.80;9.77;;;;;;;6.32;100.00;102018.03;4988585;28;20388;-75
2022/02/09 20:21:12;;;;;;;30.52;9.88;;;;;;;6.33;100.00;102005.81;4973213;28;20128;-75
2022/02/09 20:23:38;;;;;;;34.90;9.00;;;;;;;6.25;100.00;102008.88;4988615;28;20540;-76
2022/02/09 20:26:08;;;;;;;28.02;8.98;;;;;;;6.18;100.00;102004.97;4964229;28;20030;-76
2022/02/09 20:28:39;;;;;;;29.65;8.02;;;;;;;6.14;100.00;102004.28;4992663;28;20389;-76
2022/02/09 20:31:09;;;;;;;23.98;8.70;;;;;;;6.10;100.00;102000.16;4984377;28;20113;-74
2022/02/09 20:33:41;;;;;;;21.63;7.78;;;;;;;6.00;100.00;102002.44;4971597;28;20070;-75
2022/02/09 20:36:10;;;;;;;28.70;9.00;;;;;;;5.93;100.00;102002.84;4970554;28;20396;-75
2022/02/09 20:38:36;;;;;;;30.90;7.97;;;;;;;5.93;100.00;102014.09;4970198;28;20728;-75
2022/02/09 20:41:06;;;;;;;25.60;7.68;;;;;;;6.04;100.00;102014.34;4987747;28;20492;-75
2022/02/09 20:43:39;;;;;;;29.08;7.47;;;;;;;5.91;100.00;102028.13;4986367;28;20045;-75
2022/02/09 20:46:06;;;;;;;18.83;7.75;;;;;;;5.83;100.00;102021.56;4981751;28;20038;-75
2022/02/09 20:48:32;;;;;;;20.08;7.38;;;;;;;5.82;100.00;102025.13;4985215;28;20026;-75
2022/02/09 20:51:01;;;;;;;21.65;7.10;;;;;;;5.79;100.00;102027.03;4970750;28;20031;-75
2022/02/09 20:53:27;;;;;;;26.85;6.93;;;;;;;5.85;100.00;102022.31;4981113;28;20548;-75
2022/02/09 20:55:53;;;;;;;29.60;7.28;;;;;;;5.87;100.00;102032.66;4986898;28;20041;-74
2022/02/09 20:58:21;;;;;;;20.70;6.47;;;;;;;5.81;100.00;102036.44;4978814;28;20492;-75
2022/02/09 21:03:25;;;;;;;21.05;6.97;;;;;;;5.89;100.00;102025.59;4990287;28;20033;-75
2022/02/09 21:11:03;;;;;;;19.45;7.32;;;;;;;5.88;100.00;102028.28;4978286;28;20089;-75
2022/02/09 21:13:53;;;;;;;31.98;7.35;;;;;;;5.82;100.00;102027.72;4960693;28;20038;-75
2022/02/09 21:16:33;;;;;;;24.42;6.70;;;;;;;5.68;100.00;102035.44;4971220;28;20042;-76
2022/02/09 21:22:16;;;;;;;25.02;6.78;;;;;;;5.61;100.00;102024.53;4965389;28;20049;-75
2022/02/09 21:25:20;;;;;;;24.95;6.95;;;;;;;5.62;100.00;102027.97;4985824;28;20061;-77
2022/02/09 21:31:29;;;;;;;26.95;7.80;;;;;;;5.65;100.00;102022.56;4989623;28;20042;-73
2022/02/09 21:54:41;;;;;;;16.20;6.65;;;;;;;5.44;100.00;102017.63;4983915;28;20061;-74
2022/02/09 22:33:22;;;;;;;29.63;8.73;;;;;;;4.76;100.00;101988.25;4982150;28;20038;-76
2022/02/09 22:46:59;;;;;;;27.05;8.65;;;;;;;4.26;100.00;101972.50;4963871;28;20069;-75
2022/02/09 22:54:41;;;;;;;29.75;9.18;;;;;;;4.10;100.00;101971.56;4976382;28;20076;-75
2022/02/09 22:57:07;;;;;;;22.50;8.82;;;;;;;4.06;100.00;101970.03;4983623;28;20045;-74
2022/02/09 22:59:41;;;;;;;29.35;9.35;;;;;;;4.03;100.00;101962.38;4980086;28;20130;-75
2022/02/09 23:02:22;;;;;;;27.60;9.30;;;;;;;3.94;100.00;101963.69;4985615;28;20125;-75
2022/02/09 23:10:17;;;;;;;26.27;9.40;;;;;;;3.76;100.00;101967.16;4999241;28;20030;-76
2022/02/09 23:12:53;;;;;;;30.65;10.55;;;;;;;3.76;100.00;101962.78;4966563;28;20039;-76
